Terminal Aerodrome Forecast
Issued by NWS

Home | Current Version | Previous Version | Text Only | Print | Product List | Glossary On
Versions: 1 2 3 4 5 6 7 8 9 10 11 12 13 14 15 16 17
000
FTUS41 KCAR 251729
TAFBHB
TAF
KBHB 251729Z 2518/2618 11009KT 3SM -SN OVC020
     FM251930 13013KT 1SM -SN OVC010
     FM260100 13012KT 3SM -DZ BKN005 OVC010
     FM260400 12007KT 3/4SM BR VCSH OVC002
     FM261400 30008KT P6SM BKN010
     FM261500 30005KT P6SM SCT015=

USA.gov is the U.S. government's official web portal to all federal, state and local government web resources and services.